Time;durP1;ratioP1;P1;durP2;ratioP2;P2;SDS_P1;SDS_P2;PMS_P1;PMS_P2;Temp;Humidity;BMP_temperature;BMP_pressure;BME280_temperature;BME280_humidity;BME280_pressure;Samples;Min_cycle;Max_cycle;Signal;HPM_P1;HPM_P2
2023/08/04 00:01:26;;;;;;;1.40;1.30;;;;;;;12.46;100.00;95401.00;7400664;19;20408;-92
2023/08/04 00:03:57;;;;;;;1.20;1.10;;;;;;;12.14;100.00;95367.66;7399500;19;20388;-91
2023/08/04 00:06:32;;;;;;;2.60;1.73;;;;;;;13.32;100.00;95525.56;7401248;19;20456;-91
2023/08/04 00:08:59;;;;;;;5.23;1.50;;;;;;;12.03;100.00;95392.50;7399524;19;20401;-91
2023/08/04 00:11:26;;;;;;;2.40;1.17;;;;;;;11.82;100.00;95401.69;7399314;19;20750;-91
2023/08/04 00:13:58;;;;;;;1.50;1.30;;;;;;;12.18;100.00;95457.81;7398631;19;20388;-91
2023/08/04 00:16:33;;;;;;;1.33;1.23;;;;;;;11.75;100.00;95416.66;7400571;19;20396;-92
2023/08/04 00:19:04;;;;;;;2.03;1.30;;;;;;;11.38;100.00;95340.47;7395947;19;20396;-91
2023/08/04 00:21:34;;;;;;;1.93;1.37;;;;;;;11.15;100.00;95268.31;7396976;19;20420;-92
2023/08/04 00:24:04;;;;;;;1.90;1.10;;;;;;;12.12;100.00;95399.06;7400597;19;20389;-92
2023/08/04 00:26:32;;;;;;;0.97;0.93;;;;;;;11.22;100.00;95285.06;7398392;19;20407;-92
2023/08/04 00:28:59;;;;;;;0.83;0.83;;;;;;;12.03;100.00;95405.75;7401164;19;20402;-91
2023/08/04 00:31:31;;;;;;;3.90;1.30;;;;;;;11.28;100.00;95282.09;7425817;19;20432;-91
2023/08/04 00:34:10;;;;;;;2.73;1.17;;;;;;;12.27;100.00;95463.63;7428663;19;20438;-91
2023/08/04 00:36:40;;;;;;;1.80;1.70;;;;;;;11.54;100.00;95330.50;7427892;19;20408;-94
2023/08/04 00:39:17;;;;;;;1.93;1.40;;;;;;;11.14;100.00;95293.22;7426135;19;20404;-92
2023/08/04 00:42:07;;;;;;;3.67;1.27;;;;;;;10.92;100.00;95274.38;7394418;19;20423;-91
2023/08/04 00:44:46;;;;;;;2.63;1.33;;;;;;;12.73;100.00;95567.66;7394811;19;20380;-91
2023/08/04 00:47:29;;;;;;;2.30;1.70;;;;;;;12.28;100.00;95474.97;7395032;19;20389;-92
2023/08/04 00:50:09;;;;;;;2.90;1.30;;;;;;;11.06;100.00;95283.66;7394777;19;20392;-92
2023/08/04 00:52:53;;;;;;;1.93;1.20;;;;;;;10.95;100.00;95299.34;7393725;19;20432;-92
2023/08/04 00:55:26;;;;;;;6.93;1.57;;;;;;;11.92;100.00;95474.47;7395159;19;20726;-91
2023/08/04 00:57:58;;;;;;;2.37;1.27;;;;;;;11.55;100.00;95424.69;7393943;19;20911;-92
2023/08/04 01:00:26;;;;;;;4.13;1.60;;;;;;;11.83;100.00;95469.41;7394152;19;20377;-92
2023/08/04 01:02:59;;;;;;;2.70;1.57;;;;;;;10.60;100.00;95286.31;7398043;19;20960;-93
2023/08/04 01:05:34;;;;;;;2.77;1.03;;;;;;;10.62;100.00;95266.34;7395611;19;20459;-92
2023/08/04 01:08:21;;;;;;;1.40;1.30;;;;;;;10.77;100.00;95349.28;7415158;19;20433;-92
2023/08/04 01:11:13;;;;;;;2.00;1.50;;;;;;;12.44;100.00;95600.22;7416203;19;20392;-92
2023/08/04 01:13:47;;;;;;;1.33;1.23;;;;;;;11.61;100.00;95480.75;7394438;19;20388;-92
2023/08/04 01:16:17;;;;;;;2.60;1.37;;;;;;;10.39;100.00;95280.63;7394449;19;20369;-92
2023/08/04 01:18:45;;;;;;;2.20;1.70;;;;;;;10.48;100.00;95311.03;7393901;19;20729;-92
2023/08/04 01:21:14;;;;;;;1.87;1.10;;;;;;;10.40;100.00;95253.84;7392659;19;20420;-92
2023/08/04 01:23:41;;;;;;;2.13;1.37;;;;;;;11.80;100.00;95421.69;7393195;19;20369;-92
2023/08/04 01:26:11;;;;;;;1.20;1.10;;;;;;;11.64;100.00;95423.69;7393625;19;20377;-93
2023/08/04 01:28:40;;;;;;;2.23;2.03;;;;;;;12.67;100.00;95571.75;7395084;19;20407;-92
2023/08/04 01:31:10;;;;;;;4.50;3.10;;;;;;;12.02;100.00;95465.94;7394313;19;20404;-92
2023/08/04 01:33:37;;;;;;;4.07;2.53;;;;;;;10.89;100.00;95300.78;7394391;19;20384;-92
2023/08/04 01:36:05;;;;;;;4.60;3.30;;;;;;;11.64;100.00;95421.03;7393680;19;20401;-92
2023/08/04 01:38:37;;;;;;;2.90;2.00;;;;;;;11.31;100.00;95417.09;7392751;19;20367;-92
2023/08/04 01:41:05;;;;;;;2.10;1.70;;;;;;;10.17;100.00;95285.50;7394451;19;20424;-92
2023/08/04 01:43:35;;;;;;;4.80;1.90;;;;;;;11.06;100.00;95427.25;7392022;19;20381;-92
2023/08/04 01:46:19;;;;;;;2.80;1.43;;;;;;;10.15;100.00;95290.38;7392144;19;20380;-92
2023/08/04 01:48:53;;;;;;;1.80;1.30;;;;;;;11.58;100.00;95481.44;7392045;19;20397;-92
2023/08/04 01:51:21;;;;;;;2.63;1.40;;;;;;;12.21;100.00;95583.53;7392140;19;20388;-92
2023/08/04 01:53:48;;;;;;;3.00;1.20;;;;;;;10.41;100.00;95305.59;7393929;19;20789;-92
2023/08/04 01:56:15;;;;;;;4.40;1.30;;;;;;;11.53;100.00;95479.09;7392821;19;20732;-92
2023/08/04 01:58:44;;;;;;;4.00;1.40;;;;;;;10.41;100.00;95332.00;7393279;19;20395;-92
2023/08/04 02:01:14;;;;;;;3.50;1.60;;;;;;;12.21;100.00;95600.22;7392340;19;20417;-92
2023/08/04 02:03:41;;;;;;;1.70;1.60;;;;;;;9.99;100.00;95319.47;7395078;19;20455;-92
2023/08/04 02:06:09;;;;;;;1.77;1.40;;;;;;;10.17;100.00;95340.22;7396598;19;20460;-92
2023/08/04 02:08:36;;;;;;;3.50;1.50;;;;;;;11.04;100.00;95449.88;7395168;19;20975;-92
2023/08/04 02:11:10;;;;;;;2.73;1.30;;;;;;;10.68;100.00;95377.06;7392096;19;20400;-92
2023/08/04 02:13:54;;;;;;;2.53;1.50;;;;;;;11.27;100.00;95455.22;7391692;19;20377;-92
2023/08/04 02:16:34;;;;;;;2.77;1.83;;;;;;;10.56;100.00;95346.28;7391776;19;20377;-92
2023/08/04 02:19:12;;;;;;;2.63;1.83;;;;;;;12.36;100.00;95617.88;7398606;19;20414;-92
2023/08/04 02:22:34;;;;;;;2.70;1.30;;;;;;;10.00;100.00;95313.09;7395090;19;20453;-92
2023/08/04 02:25:21;;;;;;;1.67;1.37;;;;;;;10.17;100.00;95362.09;7401200;19;20393;-92
2023/08/04 02:27:49;;;;;;;2.40;1.70;;;;;;;10.32;100.00;95406.22;7400574;19;20372;-92
2023/08/04 02:30:18;;;;;;;2.80;1.40;;;;;;;11.49;100.00;95606.13;7404211;19;20592;-93
2023/08/04 02:32:45;;;;;;;1.80;1.70;;;;;;;10.47;100.00;95428.41;7398844;19;20431;-92
2023/08/04 02:35:14;;;;;;;2.70;1.60;;;;;;;9.45;100.00;95259.53;7399807;19;20384;-92
2023/08/04 02:37:44;;;;;;;3.07;1.43;;;;;;;9.75;100.00;95286.19;7419262;19;20385;-92
2023/08/04 02:40:11;;;;;;;3.90;2.03;;;;;;;10.61;100.00;95412.06;7418169;19;20424;-91
2023/08/04 02:42:57;;;;;;;4.80;1.63;;;;;;;10.35;100.00;95375.69;7424333;19;20416;-94
2023/08/04 02:45:53;;;;;;;4.03;1.30;;;;;;;9.75;100.00;95286.19;7431333;19;20376;-94
2023/08/04 02:48:58;;;;;;;3.83;1.30;;;;;;;10.17;100.00;95348.91;7404418;19;20392;-92
2023/08/04 02:51:39;;;;;;;1.30;1.20;;;;;;;9.90;100.00;95292.53;7402525;19;20415;-92
2023/08/04 02:54:27;;;;;;;1.23;1.13;;;;;;;11.97;100.00;95600.56;7405103;19;20377;-92
2023/08/04 02:56:55;;;;;;;2.00;1.50;;;;;;;11.39;100.00;95531.78;7419821;19;20968;-91
2023/08/04 02:59:22;;;;;;;2.00;1.90;;;;;;;10.99;100.00;95474.75;7430663;19;20388;-90
2023/08/04 03:01:49;;;;;;;2.00;1.27;;;;;;;10.65;100.00;95413.66;7402933;19;20403;-91
2023/08/04 03:04:16;;;;;;;1.50;1.40;;;;;;;11.70;100.00;95584.56;7402496;19;20384;-91
2023/08/04 03:06:43;;;;;;;2.60;1.70;;;;;;;11.57;100.00;95577.88;7409212;19;20460;-91
2023/08/04 03:09:10;;;;;;;1.60;1.33;;;;;;;10.60;100.00;95447.53;7399045;19;20385;-91
2023/08/04 03:11:37;;;;;;;4.70;1.30;;;;;;;9.46;100.00;95273.50;7408912;19;20421;-91
2023/08/04 03:14:04;;;;;;;4.10;1.30;;;;;;;9.43;100.00;95261.75;7429469;19;20403;-93
2023/08/04 03:16:32;;;;;;;3.87;2.00;;;;;;;9.52;100.00;95281.91;7417858;19;20404;-91
2023/08/04 03:18:59;;;;;;;2.03;1.47;;;;;;;9.88;100.00;95341.47;7399130;19;20392;-91
2023/08/04 03:21:26;;;;;;;1.97;1.80;;;;;;;9.99;100.00;95366.25;7397312;19;20420;-90
2023/08/04 03:23:53;;;;;;;2.80;1.73;;;;;;;10.24;100.00;95419.63;7400109;19;20846;-91
2023/08/04 03:26:20;;;;;;;1.70;1.50;;;;;;;10.04;100.00;95393.16;7398061;19;20403;-91
2023/08/04 03:28:48;;;;;;;3.00;1.70;;;;;;;10.97;100.00;95534.41;7399062;19;20389;-91
2023/08/04 03:31:15;;;;;;;2.70;2.20;;;;;;;9.76;100.00;95369.56;7399361;19;20401;-91
2023/08/04 03:33:42;;;;;;;3.83;2.27;;;;;;;10.32;100.00;95413.38;7408953;19;20380;-91
2023/08/04 03:36:16;;;;;;;2.03;1.80;;;;;;;10.57;100.00;95451.66;7407167;19;20723;-91
2023/08/04 03:38:44;;;;;;;3.60;2.00;;;;;;;9.38;100.00;95280.50;7409079;19;20381;-91
2023/08/04 03:41:11;;;;;;;2.30;1.50;;;;;;;9.40;100.00;95274.88;7405282;19;20413;-91
2023/08/04 03:43:39;;;;;;;1.80;1.63;;;;;;;11.81;100.00;95643.03;7400733;19;20460;-91
2023/08/04 03:46:06;;;;;;;3.70;1.90;;;;;;;10.63;100.00;95444.19;7398544;19;20385;-91
2023/08/04 03:48:34;;;;;;;2.90;1.60;;;;;;;10.04;100.00;95350.16;7397551;19;20405;-91
2023/08/04 03:51:01;;;;;;;2.20;1.50;;;;;;;10.28;100.00;95389.53;7397639;19;20462;-91
2023/08/04 03:53:37;;;;;;;1.90;1.70;;;;;;;10.71;100.00;95450.41;7403136;19;20769;-91
2023/08/04 03:56:05;;;;;;;5.13;1.70;;;;;;;9.69;100.00;95310.56;7402507;19;20385;-91
2023/08/04 03:58:32;;;;;;;2.57;1.60;;;;;;;9.76;100.00;95329.97;7401522;19;20448;-91
2023/08/04 04:01:00;;;;;;;2.67;2.47;;;;;;;10.06;100.00;95390.16;7400320;19;20393;-91
2023/08/04 04:03:27;;;;;;;3.40;2.67;;;;;;;9.97;100.00;95350.75;7399717;19;20745;-91
2023/08/04 04:05:57;;;;;;;3.00;1.77;;;;;;;11.17;100.00;95536.69;7398686;19;20668;-91
2023/08/04 04:08:25;;;;;;;3.57;2.33;;;;;;;10.28;100.00;95384.25;7397905;19;20919;-91
2023/08/04 04:10:55;;;;;;;2.83;2.00;;;;;;;11.12;100.00;95518.44;7400303;19;20360;-91
2023/08/04 04:13:23;;;;;;;2.50;1.80;;;;;;;11.42;100.00;95568.16;7398487;19;20385;-92
2023/08/04 04:15:50;;;;;;;2.40;2.20;;;;;;;10.74;100.00;95492.75;7400548;19;20996;-92
2023/08/04 04:18:23;;;;;;;3.53;2.50;;;;;;;9.90;100.00;95358.53;7398270;19;20480;-91
2023/08/04 04:20:53;;;;;;;2.40;1.77;;;;;;;10.70;100.00;95507.78;7396092;19;20384;-91
2023/08/04 04:23:20;;;;;;;2.53;1.80;;;;;;;10.94;100.00;95533.19;7397444;19;20389;-92
2023/08/04 04:25:50;;;;;;;3.77;2.03;;;;;;;10.20;100.00;95402.91;7400803;19;20377;-91
2023/08/04 04:28:17;;;;;;;2.03;1.90;;;;;;;10.84;100.00;95475.59;7399414;19;20784;-92
2023/08/04 04:30:45;;;;;;;4.33;3.33;;;;;;;10.01;100.00;95345.53;7403976;19;20418;-92
2023/08/04 04:33:14;;;;;;;3.33;1.40;;;;;;;11.13;100.00;95501.47;7401789;19;20396;-90
2023/08/04 04:35:51;;;;;;;2.53;1.63;;;;;;;11.61;100.00;95570.00;7401413;19;20389;-91
2023/08/04 04:38:33;;;;;;;5.07;1.80;;;;;;;10.30;100.00;95387.31;7406312;19;20409;-92
2023/08/04 04:41:03;;;;;;;2.03;1.77;;;;;;;11.31;100.00;95524.84;7426873;19;20404;-94
2023/08/04 04:43:31;;;;;;;1.60;1.40;;;;;;;11.33;100.00;95531.31;7426544;19;20392;-93
2023/08/04 04:45:58;;;;;;;4.60;1.93;;;;;;;11.45;100.00;95531.16;7427157;19;20385;-93
2023/08/04 04:48:26;;;;;;;4.40;1.73;;;;;;;10.25;100.00;95347.19;7427606;19;20392;-92
2023/08/04 04:50:53;;;;;;;3.70;2.10;;;;;;;11.60;100.00;95544.63;7427066;19;20396;-92
2023/08/04 04:53:20;;;;;;;2.53;1.50;;;;;;;12.29;100.00;95635.56;7427528;19;20384;-91
2023/08/04 04:55:47;;;;;;;5.77;4.27;;;;;;;11.48;100.00;95508.50;7427040;19;20377;-91
2023/08/04 04:58:14;;;;;;;5.10;4.30;;;;;;;10.98;100.00;95435.41;7396487;19;20533;-90
2023/08/04 05:00:51;;;;;;;5.17;2.57;;;;;;;12.86;100.00;95713.38;7395635;19;20411;-91
2023/08/04 05:03:24;;;;;;;2.30;1.50;;;;;;;11.22;100.00;95446.47;7398825;19;20385;-90
2023/08/04 05:05:51;;;;;;;3.07;1.93;;;;;;;10.83;100.00;95392.09;7398557;19;20400;-91
2023/08/04 05:08:18;;;;;;;4.80;2.00;;;;;;;11.48;100.00;95477.50;7396369;19;20487;-91
2023/08/04 05:10:50;;;;;;;2.17;1.97;;;;;;;11.51;100.00;95505.94;7398300;19;20381;-91
2023/08/04 05:13:17;;;;;;;2.90;1.70;;;;;;;11.36;100.00;95496.22;7396586;19;20409;-90
2023/08/04 05:15:50;;;;;;;1.80;1.30;;;;;;;11.43;100.00;95500.84;7398501;19;20745;-91
2023/08/04 05:18:18;;;;;;;3.57;1.80;;;;;;;12.32;100.00;95648.09;7396660;19;20381;-91
2023/08/04 05:20:47;;;;;;;2.40;2.20;;;;;;;11.79;100.00;95536.69;7398057;19;20952;-90
2023/08/04 05:23:15;;;;;;;3.33;1.80;;;;;;;12.50;100.00;95629.81;7396870;19;20396;-90
2023/08/04 05:25:42;;;;;;;2.80;2.10;;;;;;;11.37;100.00;95455.41;7398332;19;20388;-90
2023/08/04 05:28:22;;;;;;;2.60;1.90;;;;;;;13.11;100.00;95706.56;7396768;19;20387;-90
2023/08/04 05:31:02;;;;;;;2.30;1.97;;;;;;;11.82;100.00;95517.44;7398731;19;20811;-91
2023/08/04 05:34:05;;;;;;;2.97;2.50;;;;;;;12.20;100.00;95564.22;7397824;19;20754;-90
2023/08/04 05:36:33;;;;;;;2.23;2.03;;;;;;;12.27;100.00;95582.13;7398751;19;20368;-90
2023/08/04 05:39:00;;;;;;;2.10;1.83;;;;;;;11.65;100.00;95494.81;7396258;19;20924;-90
2023/08/04 05:41:28;;;;;;;2.00;1.80;;;;;;;12.15;100.00;95556.56;7396022;19;20952;-90
2023/08/04 05:43:55;;;;;;;2.83;1.60;;;;;;;11.38;100.00;95448.22;7397007;19;20965;-89
2023/08/04 05:46:22;;;;;;;3.53;2.00;;;;;;;11.84;100.00;95486.81;7397468;19;20417;-89
2023/08/04 05:48:49;;;;;;;3.20;1.90;;;;;;;12.42;100.00;95583.91;7397654;19;20733;-90
2023/08/04 05:51:17;;;;;;;2.70;1.73;;;;;;;11.58;100.00;95464.81;7396232;19;20424;-89
2023/08/04 05:53:44;;;;;;;1.87;1.30;;;;;;;12.01;100.00;95543.09;7405254;19;20468;-90
2023/08/04 05:56:12;;;;;;;2.13;1.73;;;;;;;12.51;100.00;95612.78;7405165;19;20396;-90
2023/08/04 05:58:39;;;;;;;4.50;1.50;;;;;;;12.18;100.00;95541.88;7406031;19;20963;-90
2023/08/04 06:01:06;;;;;;;3.47;2.33;;;;;;;12.37;100.00;95555.00;7404861;19;20476;-89
2023/08/04 06:03:34;;;;;;;2.30;2.10;;;;;;;11.42;100.00;95414.63;7401413;19;20432;-90
2023/08/04 06:06:01;;;;;;;2.63;1.87;;;;;;;12.23;100.00;95530.94;7403998;19;20380;-90
2023/08/04 06:08:28;;;;;;;2.13;1.60;;;;;;;12.70;100.00;95583.53;7403288;19;20381;-90
2023/08/04 06:10:55;;;;;;;2.77;1.80;;;;;;;13.11;100.00;95658.03;7404126;19;20377;-90
2023/08/04 06:13:22;;;;;;;1.97;1.77;;;;;;;13.69;100.00;95716.06;7403041;19;20400;-90
2023/08/04 06:15:49;;;;;;;1.83;1.70;;;;;;;13.66;100.00;95717.56;7403693;19;20400;-90
2023/08/04 06:18:17;;;;;;;3.60;3.27;;;;;;;13.53;100.00;95695.78;7402674;19;20404;-89
2023/08/04 06:20:47;;;;;;;2.17;1.70;;;;;;;12.81;100.00;95576.47;7404187;19;20714;-90
2023/08/04 06:23:14;;;;;;;2.63;2.30;;;;;;;12.21;100.00;95498.75;7402197;19;20369;-90
2023/08/04 06:25:42;;;;;;;2.50;1.70;;;;;;;12.93;100.00;95584.22;7404691;19;20381;-89
2023/08/04 06:28:09;;;;;;;2.63;1.63;;;;;;;12.32;100.00;95504.97;7405382;19;20373;-89
2023/08/04 06:30:36;;;;;;;2.27;1.50;;;;;;;13.29;100.00;95674.97;7402111;19;20393;-89
2023/08/04 06:33:03;;;;;;;3.43;1.77;;;;;;;13.36;100.00;95661.81;7399382;19;20397;-90
2023/08/04 06:35:31;;;;;;;4.40;1.47;;;;;;;13.08;100.00;95619.66;7405783;19;20391;-90
2023/08/04 06:37:58;;;;;;;2.90;2.13;;;;;;;12.18;100.00;95468.44;7403972;19;20381;-90
2023/08/04 06:40:26;;;;;;;1.80;1.57;;;;;;;12.38;100.00;95472.47;7404093;19;20381;-90
2023/08/04 06:42:53;;;;;;;3.70;1.87;;;;;;;13.65;100.00;95652.28;7400676;19;20508;-90
2023/08/04 06:45:20;;;;;;;2.87;2.67;;;;;;;14.11;100.00;95715.81;7404869;19;20399;-89
2023/08/04 06:47:47;;;;;;;4.40;1.90;;;;;;;14.25;100.00;95733.81;7405728;19;20478;-90
2023/08/04 06:50:14;;;;;;;4.00;2.23;;;;;;;13.97;100.00;95703.13;7407744;19;20396;-89
2023/08/04 06:52:41;;;;;;;2.10;1.90;;;;;;;14.56;100.00;95767.22;7409100;19;20420;-90
2023/08/04 06:55:08;;;;;;;3.87;1.87;;;;;;;14.40;100.00;95733.56;7409956;19;20377;-90
2023/08/04 06:57:35;;;;;;;1.70;1.47;;;;;;;14.64;100.00;95742.97;7410332;19;20376;-89
2023/08/04 07:00:03;;;;;;;1.93;1.60;;;;;;;14.38;100.00;95700.50;7402319;19;20380;-89
2023/08/04 07:02:31;;;;;;;1.93;1.20;;;;;;;14.76;100.00;95755.25;7401717;19;20444;-91
2023/08/04 07:04:58;;;;;;;4.53;2.17;;;;;;;15.58;100.00;95775.25;7397753;19;20356;-91
2023/08/04 07:07:25;;;;;;;2.37;2.07;;;;;;;15.41;100.00;95682.66;7410716;19;20372;-90
2023/08/04 07:09:53;;;;;;;1.90;1.70;;;;;;;16.11;100.00;95753.44;7426582;19;20381;-90
2023/08/04 07:12:20;;;;;;;3.20;1.87;;;;;;;16.45;100.00;95756.63;7407785;19;20409;-90
2023/08/04 07:14:47;;;;;;;3.40;1.67;;;;;;;15.38;100.00;95601.59;7401101;19;20397;-90
2023/08/04 07:17:16;;;;;;;2.10;1.90;;;;;;;16.34;100.00;95761.16;7400573;19;20393;-89
2023/08/04 07:19:47;;;;;;;4.63;2.17;;;;;;;15.38;100.00;95641.56;7404589;19;20383;-90
2023/08/04 07:22:14;;;;;;;2.50;2.30;;;;;;;16.99;100.00;95780.75;7402360;19;20967;-90
2023/08/04 07:24:41;;;;;;;2.93;1.90;;;;;;;15.67;100.00;95671.03;7399079;19;20389;-90
2023/08/04 07:27:08;;;;;;;2.20;2.00;;;;;;;14.81;100.00;95584.56;7402076;19;20424;-89
2023/08/04 07:29:35;;;;;;;2.50;1.50;;;;;;;15.61;100.00;95744.44;7400656;19;20420;-89
2023/08/04 07:32:02;;;;;;;3.43;2.00;;;;;;;15.21;100.00;95662.75;7398799;19;20424;-90
2023/08/04 07:34:29;;;;;;;2.07;1.77;;;;;;;16.34;100.00;95753.16;7401390;19;20389;-90
2023/08/04 07:36:56;;;;;;;6.87;1.80;;;;;;;16.32;100.00;95768.78;7402002;19;20396;-90
2023/08/04 07:39:23;;;;;;;2.40;1.80;;;;;;;15.72;100.00;95745.28;7400957;19;20394;-90
2023/08/04 07:41:51;;;;;;;3.50;2.00;;;;;;;15.73;100.00;95764.69;7400946;19;20416;-90
2023/08/04 07:44:18;;;;;;;3.07;1.97;;;;;;;14.91;100.00;95620.38;7398654;19;20385;-90
2023/08/04 07:46:45;;;;;;;5.10;1.80;;;;;;;15.75;100.00;95717.88;7401704;19;20380;-90
2023/08/04 07:49:12;;;;;;;2.70;1.60;;;;;;;16.19;100.00;95711.56;7401148;19;20384;-90
2023/08/04 07:51:39;;;;;;;2.53;1.43;;;;;;;16.31;100.00;95692.56;7401592;19;20773;-90
2023/08/04 07:54:06;;;;;;;6.13;1.77;;;;;;;15.66;100.00;95650.84;7400860;19;20407;-90
2023/08/04 07:56:33;;;;;;;3.17;2.07;;;;;;;16.19;100.00;95707.00;7404141;19;20449;-90
2023/08/04 07:59:01;;;;;;;4.13;2.03;;;;;;;17.15;100.00;95757.09;7402204;19;20377;-90
2023/08/04 08:01:28;;;;;;;1.60;1.50;;;;;;;17.36;100.00;95741.06;7399470;19;20447;-90
2023/08/04 08:03:55;;;;;;;1.63;1.53;;;;;;;17.89;100.00;95755.44;7406078;19;20385;-91
2023/08/04 08:06:22;;;;;;;1.60;1.50;;;;;;;16.86;100.00;95684.22;7406635;19;20404;-91
2023/08/04 08:08:49;;;;;;;3.20;1.40;;;;;;;17.79;100.00;95777.66;7412850;19;20406;-90
2023/08/04 08:11:16;;;;;;;3.23;1.60;;;;;;;16.39;100.00;95674.63;7419857;19;21055;-90
2023/08/04 08:13:43;;;;;;;3.20;1.70;;;;;;;16.76;100.00;95773.84;7403152;19;20380;-90
2023/08/04 08:16:15;;;;;;;2.30;2.10;;;;;;;16.29;100.00;95726.81;7397893;19;20493;-91
2023/08/04 08:18:45;;;;;;;1.87;1.50;;;;;;;15.77;100.00;95622.31;7401102;19;20436;-90
2023/08/04 08:21:13;;;;;;;2.80;1.77;;;;;;;16.12;100.00;95647.53;7400966;19;20959;-91
2023/08/04 08:23:40;;;;;;;2.70;1.67;;;;;;;17.40;100.00;95747.16;7399651;19;20392;-91
2023/08/04 08:26:07;;;;;;;1.73;1.17;;;;;;;17.65;100.00;95700.88;7401792;19;20387;-91
2023/08/04 08:28:34;;;;;;;2.90;1.33;;;;;;;18.02;100.00;95791.31;7400510;19;20377;-91
2023/08/04 08:31:01;;;;;;;1.63;1.43;;;;;;;18.05;100.00;95761.16;7401179;19;20388;-91
2023/08/04 08:33:28;;;;;;;1.77;1.67;;;;;;;18.30;100.00;95807.31;7396778;19;20467;-91
2023/08/04 08:35:56;;;;;;;1.70;1.60;;;;;;;18.10;100.00;95813.47;7395918;19;20748;-92
2023/08/04 08:38:23;;;;;;;2.00;1.90;;;;;;;17.96;100.00;95814.28;7395884;19;20387;-91
2023/08/04 08:40:50;;;;;;;2.27;1.63;;;;;;;18.18;100.00;95849.78;7395606;19;20380;-91
2023/08/04 08:43:17;;;;;;;2.13;1.93;;;;;;;18.29;100.00;95813.78;7395537;19;20373;-92
2023/08/04 08:45:45;;;;;;;3.70;2.70;;;;;;;18.74;100.00;95827.38;7394517;19;20387;-92
2023/08/04 08:48:12;;;;;;;3.63;1.60;;;;;;;18.93;100.00;95820.75;7394592;19;20422;-92
2023/08/04 08:50:40;;;;;;;2.37;1.73;;;;;;;19.26;100.00;95846.22;7394350;19;20353;-92
2023/08/04 08:53:20;;;;;;;3.57;1.57;;;;;;;18.34;100.00;95769.06;7396160;19;20424;-92
2023/08/04 08:55:47;;;;;;;2.33;1.60;;;;;;;18.59;100.00;95823.25;7395227;19;20492;-92
2023/08/04 08:58:15;;;;;;;2.10;1.20;;;;;;;18.73;100.00;95825.88;7395097;19;20349;-92
2023/08/04 09:00:42;;;;;;;4.30;1.50;;;;;;;19.10;100.00;95840.59;7396248;19;20368;-92
2023/08/04 09:03:10;;;;;;;1.30;1.10;;;;;;;18.28;100.00;95782.81;7393510;19;20768;-91
2023/08/04 09:05:37;;;;;;;2.50;1.40;;;;;;;18.59;100.00;95807.16;7397091;19;20424;-90
2023/08/04 09:08:06;;;;;;;2.77;1.60;;;;;;;17.81;100.00;95823.50;7402348;19;20396;-90
2023/08/04 09:10:37;;;;;;;2.37;1.37;;;;;;;17.71;100.00;95796.38;7411479;19;20389;-91
2023/08/04 09:13:08;;;;;;;2.50;1.70;;;;;;;18.15;100.00;95816.50;7394029;19;20421;-91
2023/08/04 09:15:48;;;;;;;1.20;1.10;;;;;;;18.76;100.00;95816.28;7394907;19;20680;-91
2023/08/04 09:18:33;;;;;;;2.50;1.47;;;;;;;18.74;100.00;95794.50;7396612;19;20387;-91
2023/08/04 09:21:11;;;;;;;2.70;1.60;;;;;;;18.63;100.00;95829.34;7398331;19;20797;-90
2023/08/04 09:23:49;;;;;;;1.73;1.30;;;;;;;18.71;100.00;95827.41;7397368;19;20381;-91
2023/08/04 09:26:17;;;;;;;2.90;1.40;;;;;;;18.65;100.00;95824.38;7398182;19;20455;-90
2023/08/04 09:28:45;;;;;;;1.50;1.30;;;;;;;18.76;100.00;95827.75;7422538;19;20436;-91
2023/08/04 09:31:13;;;;;;;4.20;1.73;;;;;;;18.38;100.00;95772.47;7422844;19;20412;-90
2023/08/04 09:33:43;;;;;;;1.83;1.00;;;;;;;18.77;100.00;95821.25;7422478;19;20403;-91
2023/08/04 09:36:18;;;;;;;1.63;1.20;;;;;;;18.95;100.00;95817.69;7415463;19;20361;-91
2023/08/04 09:38:47;;;;;;;1.77;1.50;;;;;;;19.21;100.00;95793.00;7419896;19;20396;-90
2023/08/04 09:41:15;;;;;;;2.93;1.60;;;;;;;18.91;100.00;95804.31;7405186;19;20912;-91
2023/08/04 09:43:47;;;;;;;2.30;1.30;;;;;;;19.30;100.00;95812.09;7416901;19;20388;-91
2023/08/04 09:46:16;;;;;;;2.00;1.40;;;;;;;18.99;100.00;95811.16;7406149;19;20364;-91
2023/08/04 09:48:44;;;;;;;2.43;1.50;;;;;;;18.19;100.00;95744.28;7405591;19;20376;-91
2023/08/04 09:51:12;;;;;;;1.40;1.30;;;;;;;19.06;100.00;95818.38;7402747;19;20944;-90
2023/08/04 09:53:47;;;;;;;2.20;1.30;;;;;;;19.04;100.00;95813.41;7405078;19;20701;-91
2023/08/04 09:56:19;;;;;;;2.90;1.33;;;;;;;19.10;100.00;95773.59;7403821;19;20376;-91
2023/08/04 09:58:48;;;;;;;1.57;1.20;;;;;;;19.46;100.00;95750.66;7412177;19;20451;-91
2023/08/04 10:01:18;;;;;;;2.60;1.20;;;;;;;18.40;100.00;95607.63;7415249;19;20392;-91
2023/08/04 10:03:54;;;;;;;1.93;1.20;;;;;;;19.78;100.00;95819.38;7411794;19;20384;-91
2023/08/04 10:06:24;;;;;;;6.60;2.50;;;;;;;19.54;100.00;95737.94;7411955;19;20756;-91
2023/08/04 10:08:55;;;;;;;1.53;1.30;;;;;;;20.11;100.00;95774.16;7403333;19;20393;-91
2023/08/04 10:11:23;;;;;;;2.13;1.17;;;;;;;20.48;100.00;95813.63;7403308;19;20431;-91
2023/08/04 10:13:56;;;;;;;1.83;1.60;;;;;;;19.77;100.00;95713.22;7402102;19;20389;-91
2023/08/04 10:16:36;;;;;;;2.40;0.90;;;;;;;20.11;100.00;95764.19;7404329;19;20381;-91
2023/08/04 10:19:06;;;;;;;1.90;1.40;;;;;;;18.93;100.00;95606.44;7402454;19;20713;-91
2023/08/04 10:21:36;;;;;;;2.90;1.57;;;;;;;19.45;100.00;95719.63;7400068;19;20428;-91
2023/08/04 10:24:08;;;;;;;2.63;1.30;;;;;;;19.99;100.00;95796.91;7401194;19;20388;-91
2023/08/04 10:26:45;;;;;;;2.93;1.20;;;;;;;20.12;100.00;95751.53;7400996;19;20360;-91
2023/08/04 10:29:12;;;;;;;1.77;1.20;;;;;;;20.17;100.00;95714.28;7401908;19;20376;-91
2023/08/04 10:31:42;;;;;;;2.20;1.10;;;;;;;20.64;100.00;95793.06;7404054;19;20400;-91
2023/08/04 10:34:24;;;;;;;1.43;1.23;;;;;;;19.93;100.00;95793.91;7402534;19;20368;-91
2023/08/04 10:37:14;;;;;;;2.30;1.43;;;;;;;19.85;100.00;95786.34;7406759;19;20340;-91
2023/08/04 10:39:48;;;;;;;1.43;1.30;;;;;;;19.63;100.00;95791.94;7400427;19;20405;-91
2023/08/04 10:42:21;;;;;;;1.07;0.97;;;;;;;18.30;100.00;95672.72;7402223;19;20396;-90
2023/08/04 10:44:54;;;;;;;2.97;1.70;;;;;;;18.30;100.00;95736.97;7400865;19;20397;-91
2023/08/04 10:47:46;;;;;;;2.73;1.77;;;;;;;18.19;100.00;95792.44;7405927;19;20388;-91
2023/08/04 10:50:33;;;;;;;1.63;1.17;;;;;;;17.98;100.00;95755.81;7403947;19;20396;-91
2023/08/04 10:53:00;;;;;;;4.53;1.87;;;;;;;17.78;100.00;95762.75;7400022;19;20424;-91
2023/08/04 10:55:27;;;;;;;2.73;1.40;;;;;;;17.08;100.00;95712.44;7404404;19;20393;-91
2023/08/04 10:57:54;;;;;;;3.20;1.30;;;;;;;17.47;100.00;95759.72;7402612;19;20437;-91
2023/08/04 11:00:21;;;;;;;1.50;1.40;;;;;;;17.26;100.00;95723.13;7404983;19;20409;-91
2023/08/04 11:02:48;;;;;;;2.67;1.80;;;;;;;17.70;100.00;95765.44;7400785;19;20476;-91
2023/08/04 11:05:15;;;;;;;3.90;1.80;;;;;;;18.04;100.00;95788.28;7398443;19;20927;-92
2023/08/04 11:07:46;;;;;;;9.43;2.10;;;;;;;18.23;100.00;95761.81;7402968;19;20385;-92
2023/08/04 11:10:15;;;;;;;2.00;1.20;;;;;;;18.58;100.00;95785.00;7414202;19;20385;-92
2023/08/04 11:12:42;;;;;;;1.80;1.30;;;;;;;17.61;100.00;95721.50;7402588;19;20417;-92
2023/08/04 11:15:10;;;;;;;1.07;0.93;;;;;;;18.16;100.00;95728.97;7408096;19;20394;-91
2023/08/04 11:17:39;;;;;;;2.13;1.40;;;;;;;19.13;100.00;95797.66;7405388;19;20389;-92
2023/08/04 11:20:14;;;;;;;4.60;1.57;;;;;;;18.69;100.00;95735.97;7411013;19;20400;-92
2023/08/04 11:22:48;;;;;;;4.90;1.33;;;;;;;18.92;100.00;95805.09;7405324;19;20916;-92
2023/08/04 11:25:16;;;;;;;7.37;1.50;;;;;;;18.60;100.00;95728.34;7399730;19;20387;-92
2023/08/04 11:27:45;;;;;;;3.63;2.07;;;;;;;18.42;100.00;95784.66;7404741;19;20391;-92
2023/08/04 11:30:12;;;;;;;2.30;1.23;;;;;;;18.53;100.00;95789.97;7403107;19;20427;-92
2023/08/04 11:32:39;;;;;;;7.00;1.40;;;;;;;17.80;100.00;95771.91;7399448;19;20421;-92
2023/08/04 11:35:07;;;;;;;4.17;1.70;;;;;;;18.37;100.00;95790.44;7403327;19;20450;-92
2023/08/04 11:37:35;;;;;;;1.43;1.20;;;;;;;19.03;100.00;95827.97;7402644;19;20385;-92
2023/08/04 11:40:02;;;;;;;1.60;1.50;;;;;;;18.99;100.00;95827.25;7401222;19;20738;-92
2023/08/04 11:42:30;;;;;;;2.63;1.73;;;;;;;19.28;100.00;95813.66;7398280;19;20488;-92